Time;durP1;ratioP1;P1;durP2;ratioP2;P2;SDS_P1;SDS_P2;PMS_P1;PMS_P2;Temp;Humidity;BMP_temperature;BMP_pressure;BME280_temperature;BME280_humidity;BME280_pressure;Samples;Min_cycle;Max_cycle;Signal;HPM_P1;HPM_P2
2023/10/14 00:02:28;;;;;;;;;;;10.00;99.90;;;;;;5005512;28;20069;-59
2023/10/14 00:04:54;;;;;;;9.57;2.03;;;10.00;99.90;;;;;;5014233;28;20007;-58
2023/10/14 00:07:24;;;;;;;13.15;2.40;;;10.00;99.90;;;;;;5013683;28;20054;-59
2023/10/14 00:09:52;;;;;;;10.82;2.25;;;10.00;99.90;;;;;;5009009;28;20202;-57
2023/10/14 00:12:20;;;;;;;7.78;2.05;;;9.90;99.90;;;;;;5013438;28;20076;-58
2023/10/14 00:14:49;;;;;;;9.77;2.42;;;9.80;99.90;;;;;;5015364;28;20046;-57
2023/10/14 00:17:18;;;;;;;7.07;2.00;;;9.80;99.90;;;;;;5011778;28;20053;-58
2023/10/14 00:19:55;;;;;;;15.07;3.03;;;9.80;99.90;;;;;;5017197;28;20505;-58
2023/10/14 00:22:23;;;;;;;10.63;1.95;;;9.80;99.90;;;;;;5007951;28;20042;-58
2023/10/14 00:24:52;;;;;;;13.23;2.17;;;9.80;99.90;;;;;;5009879;28;20132;-58
2023/10/14 00:27:19;;;;;;;9.60;2.97;;;9.80;99.90;;;;;;5019154;28;20068;-58
2023/10/14 00:29:47;;;;;;;14.55;3.50;;;9.70;99.90;;;;;;5020577;28;20053;-58
2023/10/14 00:32:14;;;;;;;10.25;2.67;;;9.70;99.90;;;;;;5009471;28;20050;-57
2023/10/14 00:34:42;;;;;;;9.45;2.20;;;9.70;99.90;;;;;;5012804;28;20050;-58
2023/10/14 00:37:09;;;;;;;11.13;2.30;;;9.60;99.90;;;;;;5010552;28;20046;-59
2023/10/14 00:39:36;;;;;;;14.32;2.13;;;9.60;99.90;;;;;;5019918;28;20145;-59
2023/10/14 00:42:07;;;;;;;10.98;2.25;;;9.60;99.90;;;;;;5009518;28;20046;-59
2023/10/14 00:44:35;;;;;;;10.90;2.75;;;9.60;99.90;;;;;;5020786;28;20061;-59
2023/10/14 00:47:06;;;;;;;8.52;1.90;;;9.60;99.90;;;;;;5016583;28;20037;-58
2023/10/14 00:49:35;;;;;;;13.13;2.03;;;9.70;99.90;;;;;;5005360;28;20489;-59
2023/10/14 00:52:18;;;;;;;8.80;1.83;;;9.60;99.90;;;;;;5009346;28;20138;-58
2023/10/14 00:59:48;;;;;;;15.90;2.60;;;9.50;99.90;;;;;;5010410;28;20409;-59
2023/10/14 01:02:15;;;;;;;8.80;1.92;;;9.50;99.90;;;;;;4654109;28;9999945;-59
2023/10/14 01:04:51;;;;;;;8.23;1.80;;;9.50;99.90;;;;;;5013358;28;20081;-58
2023/10/14 01:07:18;;;;;;;6.50;2.05;;;9.50;99.90;;;;;;5007081;28;20465;-58
2023/10/14 01:14:59;;;;;;;10.88;2.33;;;9.50;99.90;;;;;;5003244;28;20112;-58
2023/10/14 01:17:32;;;;;;;13.35;2.40;;;9.50;99.90;;;;;;5008163;28;20521;-56
2023/10/14 01:20:26;;;;;;;13.25;1.90;;;9.40;99.90;;;;;;5015548;28;20042;-58
2023/10/14 01:23:00;;;;;;;9.73;2.85;;;9.50;99.90;;;;;;5008630;28;20052;-59
2023/10/14 01:25:31;;;;;;;8.70;1.65;;;9.40;99.90;;;;;;5008200;28;20096;-58
2023/10/14 01:27:59;;;;;;;12.23;2.28;;;9.40;99.90;;;;;;5008721;28;20049;-57
2023/10/14 01:30:32;;;;;;;8.98;2.53;;;9.40;99.90;;;;;;5015100;28;20064;-57
2023/10/14 01:33:12;;;;;;;6.53;1.42;;;9.40;99.90;;;;;;5010070;28;20072;-57
2023/10/14 01:35:45;;;;;;;6.80;1.90;;;9.40;99.90;;;;;;5017072;28;20442;-58
2023/10/14 01:38:12;;;;;;;9.93;1.85;;;9.40;99.90;;;;;;5008354;28;20061;-57
2023/10/14 01:40:44;;;;;;;8.45;2.33;;;9.30;99.90;;;;;;5015409;28;20582;-57
2023/10/14 01:43:11;;;;;;;15.55;2.10;;;9.30;99.90;;;;;;5011771;28;20092;-57
2023/10/14 01:48:19;;;;;;;7.30;1.40;;;9.40;99.90;;;;;;5013176;28;20096;-58
2023/10/14 01:50:46;;;;;;;8.10;1.58;;;9.30;99.90;;;;;;5012938;28;20041;-58
2023/10/14 01:53:17;;;;;;;8.27;1.70;;;9.30;99.90;;;;;;5013555;28;20119;-58
2023/10/14 01:55:45;;;;;;;12.07;1.77;;;9.30;99.90;;;;;;5010066;28;20131;-57
2023/10/14 02:03:44;;;;;;;9.05;1.95;;;9.30;99.90;;;;;;5012957;28;20092;-59
2023/10/14 02:06:16;;;;;;;13.32;1.98;;;9.30;99.90;;;;;;5002609;28;20049;-58
2023/10/14 02:08:50;;;;;;;8.70;1.80;;;9.30;99.90;;;;;;5011038;28;20136;-57
2023/10/14 02:11:21;;;;;;;9.55;2.22;;;9.40;99.90;;;;;;5007804;28;20061;-59
2023/10/14 02:13:50;;;;;;;11.05;1.83;;;9.40;99.90;;;;;;5008328;28;20129;-58
2023/10/14 02:16:40;;;;;;;10.50;2.10;;;9.40;99.90;;;;;;5025520;28;20057;-58
2023/10/14 02:22:02;;;;;;;10.50;3.15;;;9.20;99.90;;;;;;5005793;28;20046;-58
2023/10/14 02:24:29;;;;;;;11.68;1.67;;;9.20;99.90;;;;;;5013022;28;20049;-59
2023/10/14 02:27:14;;;;;;;5.43;1.42;;;9.20;99.90;;;;;;5012401;28;20067;-58
2023/10/14 02:29:43;;;;;;;5.57;1.20;;;9.20;99.90;;;;;;5010760;28;20054;-55
2023/10/14 02:32:13;;;;;;;11.93;2.15;;;9.20;99.90;;;;;;5012523;28;20041;-57
2023/10/14 02:34:40;;;;;;;11.57;1.95;;;9.20;99.90;;;;;;5009882;28;20042;-55
2023/10/14 02:37:10;;;;;;;13.77;2.33;;;9.20;99.90;;;;;;5011220;28;20068;-57
2023/10/14 02:39:37;;;;;;;6.70;1.60;;;9.20;99.90;;;;;;5013571;28;20380;-57
2023/10/14 02:44:33;;;;;;;18.65;2.47;;;9.20;99.90;;;;;;5008425;28;20548;-58
2023/10/14 02:47:08;;;;;;;10.32;3.28;;;9.10;99.90;;;;;;5007754;28;20138;-58
2023/10/14 02:49:42;;;;;;;10.68;1.85;;;9.10;99.90;;;;;;4998116;28;20528;-57
2023/10/14 02:52:18;;;;;;;12.97;2.00;;;9.10;99.90;;;;;;5006797;28;20494;-56
2023/10/14 02:54:53;;;;;;;13.98;1.73;;;9.00;99.90;;;;;;4998026;28;20046;-57
2023/10/14 02:57:24;;;;;;;8.27;1.50;;;8.90;99.90;;;;;;5005725;28;20099;-57
2023/10/14 02:59:52;;;;;;;10.13;2.45;;;8.90;99.90;;;;;;5007241;28;20053;-58
2023/10/14 03:07:28;;;;;;;10.13;1.73;;;8.90;99.90;;;;;;5007435;28;20092;-57
2023/10/14 03:09:58;;;;;;;5.88;1.10;;;8.90;99.90;;;;;;5017997;28;20489;-56
2023/10/14 03:12:25;;;;;;;11.73;1.65;;;8.90;99.90;;;;;;5007415;28;20046;-58
2023/10/14 03:14:52;;;;;;;11.07;2.03;;;8.90;99.90;;;;;;5006712;28;20077;-56
2023/10/14 03:17:39;;;;;;;8.25;1.58;;;8.80;99.90;;;;;;5007035;28;20493;-58
2023/10/14 03:22:56;;;;;;;4.80;2.13;;;8.90;99.90;;;;;;5007272;28;20046;-56
2023/10/14 03:25:23;;;;;;;11.23;1.75;;;8.80;99.90;;;;;;5018233;28;20050;-57
2023/10/14 03:27:50;;;;;;;6.85;1.80;;;8.90;99.90;;;;;;5007116;28;20050;-57
2023/10/14 03:30:17;;;;;;;8.77;2.13;;;8.80;99.90;;;;;;5021945;28;20065;-59
2023/10/14 03:32:44;;;;;;;13.20;2.22;;;8.80;99.90;;;;;;5007083;28;20046;-57
2023/10/14 03:35:20;;;;;;;8.27;1.77;;;8.80;99.90;;;;;;5017093;28;20053;-57
2023/10/14 03:37:54;;;;;;;9.48;1.98;;;8.80;99.90;;;;;;5010750;28;20046;-57
2023/10/14 03:43:14;;;;;;;16.75;1.80;;;8.80;99.90;;;;;;5010686;28;20705;-57
2023/10/14 03:46:15;;;;;;;8.80;1.63;;;8.80;99.90;;;;;;5020987;28;20050;-57
2023/10/14 03:48:36;;;;;;;10.07;2.10;;;8.80;99.90;;;;;;5007409;28;20375;-58
2023/10/14 03:51:03;;;;;;;6.82;2.03;;;8.70;99.90;;;;;;5015640;28;20053;-58
2023/10/14 03:53:33;;;;;;;7.93;1.50;;;8.70;99.90;;;;;;5010141;28;20087;-58
2023/10/14 03:56:03;;;;;;;10.52;1.83;;;8.70;99.90;;;;;;5018926;28;20049;-57
2023/10/14 03:58:31;;;;;;;12.48;2.05;;;8.70;99.90;;;;;;5005545;28;20382;-58
2023/10/14 04:01:02;;;;;;;8.48;2.17;;;8.60;99.90;;;;;;5019506;28;20072;-59
2023/10/14 04:03:39;;;;;;;4.88;1.25;;;8.80;99.90;;;;;;5027085;28;20069;-58
2023/10/14 04:06:14;;;;;;;13.23;2.72;;;8.70;99.90;;;;;;5008975;28;20064;-58
2023/10/14 04:08:50;;;;;;;6.32;1.55;;;8.70;99.90;;;;;;5016152;28;20042;-57
2023/10/14 04:11:25;;;;;;;10.07;1.50;;;8.60;99.90;;;;;;5022813;28;20489;-57
2023/10/14 04:13:58;;;;;;;10.52;1.73;;;8.60;99.90;;;;;;5019603;28;20062;-58
2023/10/14 04:16:47;;;;;;;10.85;1.58;;;8.60;99.90;;;;;;5009958;28;20358;-57
2023/10/14 04:19:44;;;;;;;12.20;2.80;;;8.60;99.90;;;;;;5004472;28;20452;-57
2023/10/14 04:22:45;;;;;;;17.00;2.22;;;8.50;99.90;;;;;;5020843;28;20379;-58
2023/10/14 04:28:18;;;;;;;8.45;1.90;;;8.50;99.90;;;;;;5001118;28;20508;-57
2023/10/14 04:30:44;;;;;;;6.53;1.10;;;8.50;99.90;;;;;;5009701;28;20049;-57
2023/10/14 04:35:57;;;;;;;6.07;1.38;;;8.50;99.90;;;;;;5006136;28;20046;-59
2023/10/14 04:38:37;;;;;;;10.55;1.67;;;8.50;99.90;;;;;;5018489;28;20473;-59
2023/10/14 04:41:12;;;;;;;13.48;2.15;;;8.50;99.90;;;;;;5016266;28;20050;-56
2023/10/14 04:46:32;;;;;;;10.40;1.58;;;8.50;99.90;;;;;;5008637;28;20097;-56
2023/10/14 04:49:06;;;;;;;12.40;2.20;;;8.50;99.90;;;;;;5014748;28;20053;-55
2023/10/14 04:51:45;;;;;;;12.93;1.70;;;8.40;99.90;;;;;;5010412;28;20130;-57
2023/10/14 04:54:19;;;;;;;4.30;1.50;;;8.50;99.90;;;;;;5013584;28;20049;-57
2023/10/14 04:56:47;;;;;;;5.88;1.98;;;8.40;99.90;;;;;;5017565;28;20055;-56
2023/10/14 04:59:19;;;;;;;17.52;1.92;;;8.40;99.90;;;;;;5009193;28;21014;-57
2023/10/14 05:01:48;;;;;;;9.13;1.67;;;8.40;99.90;;;;;;5010897;28;20069;-57
2023/10/14 05:04:19;;;;;;;7.30;1.38;;;8.40;99.90;;;;;;5010420;28;20287;-57
2023/10/14 05:06:48;;;;;;;8.68;1.63;;;8.40;99.90;;;;;;5005888;28;20612;-58
2023/10/14 05:09:30;;;;;;;7.50;1.30;;;8.40;99.90;;;;;;5009225;28;20101;-59
2023/10/14 05:12:00;;;;;;;15.32;1.98;;;8.30;99.90;;;;;;5005933;28;20057;-56
2023/10/14 05:14:37;;;;;;;11.55;1.40;;;8.30;99.90;;;;;;5012070;28;20433;-58
2023/10/14 05:19:42;;;;;;;8.88;1.58;;;8.30;99.90;;;;;;5011326;28;20045;-58
2023/10/14 05:22:19;;;;;;;7.97;1.67;;;8.30;99.90;;;;;;5016188;28;20050;-57
2023/10/14 05:24:49;;;;;;;14.23;2.45;;;8.30;99.90;;;;;;5009712;28;20047;-57
2023/10/14 05:27:17;;;;;;;9.05;1.70;;;8.30;99.90;;;;;;5017547;28;20285;-57
2023/10/14 05:29:50;;;;;;;15.10;4.50;;;8.30;99.90;;;;;;5025450;28;20057;-57
2023/10/14 05:32:24;;;;;;;8.75;1.92;;;8.30;99.90;;;;;;4998474;28;20145;-57
2023/10/14 05:34:52;;;;;;;6.70;1.40;;;8.30;99.90;;;;;;4995529;28;20080;-57
2023/10/14 05:37:21;;;;;;;9.35;1.88;;;8.30;99.90;;;;;;5010844;28;20049;-58
2023/10/14 05:39:50;;;;;;;10.43;3.55;;;8.30;99.90;;;;;;5012717;28;20046;-58
2023/10/14 05:42:21;;;;;;;8.02;1.60;;;8.30;99.90;;;;;;5005968;28;20141;-57
2023/10/14 05:44:49;;;;;;;11.20;1.63;;;8.30;99.90;;;;;;5008510;28;20124;-57
2023/10/14 05:47:17;;;;;;;11.35;1.60;;;8.30;99.90;;;;;;5003906;28;20046;-56
2023/10/14 05:49:44;;;;;;;8.98;1.58;;;8.30;99.90;;;;;;5010660;28;20054;-56
2023/10/14 05:52:11;;;;;;;14.23;1.95;;;8.30;99.90;;;;;;5020153;28;20056;-55
2023/10/14 05:54:39;;;;;;;8.13;1.70;;;8.30;99.90;;;;;;5008883;28;20100;-56
2023/10/14 05:57:08;;;;;;;12.50;2.10;;;8.30;99.90;;;;;;5008286;28;20046;-56
2023/10/14 05:59:36;;;;;;;6.47;1.55;;;8.20;99.90;;;;;;5016851;28;20047;-56
2023/10/14 06:02:07;;;;;;;6.78;1.65;;;8.20;99.90;;;;;;5009151;28;20045;-56
2023/10/14 06:04:40;;;;;;;6.53;1.40;;;8.20;99.90;;;;;;5011275;28;20100;-56
2023/10/14 06:07:14;;;;;;;6.78;1.80;;;8.20;99.90;;;;;;5008153;28;20053;-57
2023/10/14 06:09:47;;;;;;;10.38;1.70;;;8.20;99.90;;;;;;5015616;28;20128;-57
2023/10/14 06:12:16;;;;;;;6.57;1.60;;;8.20;99.90;;;;;;5010054;28;20037;-55
2023/10/14 06:14:45;;;;;;;10.60;1.95;;;8.20;99.90;;;;;;5016330;28;20153;-58
2023/10/14 06:17:13;;;;;;;13.10;1.98;;;8.20;99.90;;;;;;5006953;28;20049;-58
2023/10/14 06:19:42;;;;;;;9.13;1.73;;;8.30;99.90;;;;;;5012563;28;20194;-57
2023/10/14 06:22:13;;;;;;;11.85;1.80;;;8.30;99.90;;;;;;5014089;28;20137;-57
2023/10/14 06:24:42;;;;;;;11.05;1.95;;;8.30;99.90;;;;;;5008139;28;20489;-58
2023/10/14 06:27:09;;;;;;;8.75;1.67;;;8.30;99.90;;;;;;5007613;28;20050;-58
2023/10/14 06:29:36;;;;;;;10.23;2.35;;;8.30;99.90;;;;;;5012881;28;20041;-57
2023/10/14 06:32:04;;;;;;;10.25;1.75;;;8.30;99.90;;;;;;5010119;28;20596;-58
2023/10/14 06:34:49;;;;;;;9.90;1.60;;;8.30;99.90;;;;;;5022610;28;20580;-58
2023/10/14 06:37:16;;;;;;;6.88;2.00;;;8.20;99.90;;;;;;5031309;28;20049;-56
2023/10/14 06:39:44;;;;;;;7.43;2.97;;;8.20;99.90;;;;;;5008400;28;20071;-58
2023/10/14 06:42:17;;;;;;;11.05;1.70;;;8.20;99.90;;;;;;5016864;28;20052;-58
2023/10/14 06:44:45;;;;;;;17.70;2.40;;;8.20;99.90;;;;;;5010019;28;20049;-58
2023/10/14 06:47:13;;;;;;;7.10;1.45;;;8.20;99.90;;;;;;5022320;28;20046;-59
2023/10/14 06:49:43;;;;;;;14.63;2.30;;;8.20;99.90;;;;;;5015984;28;20065;-58
2023/10/14 06:52:14;;;;;;;10.40;1.92;;;8.30;99.90;;;;;;5011851;28;20436;-56
2023/10/14 06:54:41;;;;;;;12.25;2.13;;;8.20;99.90;;;;;;5010431;28;20050;-55
2023/10/14 06:57:08;;;;;;;8.52;1.90;;;8.30;99.90;;;;;;5018627;28;20042;-57
2023/10/14 06:59:37;;;;;;;16.38;2.35;;;8.40;99.90;;;;;;5011073;28;20046;-56
2023/10/14 07:02:05;;;;;;;10.32;2.25;;;8.30;99.90;;;;;;5014071;28;20046;-56
2023/10/14 07:04:37;;;;;;;11.38;2.05;;;8.30;99.90;;;;;;5015613;28;20054;-56
2023/10/14 07:07:08;;;;;;;8.13;2.10;;;8.40;99.90;;;;;;5013391;28;20038;-56
2023/10/14 07:09:37;;;;;;;12.20;3.90;;;8.30;99.90;;;;;;5008561;28;20049;-55
2023/10/14 07:12:13;;;;;;;6.85;1.88;;;8.40;99.90;;;;;;5020046;28;20087;-56
2023/10/14 07:14:41;;;;;;;8.73;3.10;;;8.50;99.90;;;;;;5020907;28;20108;-55
2023/10/14 07:17:08;;;;;;;11.20;1.50;;;8.50;99.90;;;;;;5017157;28;20056;-56
2023/10/14 07:19:38;;;;;;;13.95;2.10;;;8.50;99.90;;;;;;5019608;28;20494;-57
2023/10/14 07:22:10;;;;;;;14.75;2.83;;;8.50;99.90;;;;;;5012032;28;20100;-56
2023/10/14 07:24:37;;;;;;;17.27;2.22;;;8.60;99.90;;;;;;5016838;28;20065;-60
2023/10/14 07:27:05;;;;;;;7.82;1.60;;;8.60;99.90;;;;;;5020599;28;20057;-56
2023/10/14 07:29:32;;;;;;;8.68;1.40;;;8.70;99.90;;;;;;5017840;28;20042;-57
2023/10/14 07:32:01;;;;;;;8.88;1.67;;;8.70;99.90;;;;;;5019701;28;20053;-56
2023/10/14 07:34:28;;;;;;;12.00;3.38;;;8.70;99.90;;;;;;5014421;28;20539;-58
2023/10/14 07:36:55;;;;;;;7.90;1.60;;;8.70;99.90;;;;;;5010818;28;20046;-57
2023/10/14 07:39:28;;;;;;;11.52;1.88;;;8.80;99.90;;;;;;5013054;28;20092;-56
2023/10/14 07:41:55;;;;;;;11.48;1.73;;;8.90;99.90;;;;;;5015042;28;20038;-57
2023/10/14 07:44:22;;;;;;;16.83;2.13;;;8.90;99.90;;;;;;5017544;28;20046;-59
2023/10/14 07:46:50;;;;;;;9.23;1.55;;;8.90;99.90;;;;;;5021014;28;20061;-55
2023/10/14 07:49:17;;;;;;;17.02;2.90;;;8.90;99.90;;;;;;5012748;28;20082;-55
2023/10/14 07:51:46;;;;;;;9.15;2.38;;;9.00;99.90;;;;;;5011749;28;20041;-56
2023/10/14 07:54:12;;;;;;;8.77;1.85;;;9.00;99.90;;;;;;5013395;28;20045;-56
2023/10/14 07:56:43;;;;;;;9.95;1.88;;;9.00;99.90;;;;;;5008977;28;20050;-56
2023/10/14 07:59:10;;;;;;;7.47;1.77;;;9.10;99.90;;;;;;5023790;28;20054;-55
2023/10/14 08:01:38;;;;;;;10.93;3.10;;;9.20;99.90;;;;;;5015439;28;20099;-57
2023/10/14 08:04:13;;;;;;;15.10;2.72;;;9.10;99.90;;;;;;5017354;28;20068;-57
2023/10/14 08:06:41;;;;;;;11.45;2.25;;;9.20;99.90;;;;;;5008856;28;20081;-57
2023/10/14 08:09:23;;;;;;;17.80;2.25;;;9.20;99.90;;;;;;5009820;28;20089;-59
2023/10/14 08:11:51;;;;;;;15.13;1.95;;;9.30;99.90;;;;;;5009803;28;20530;-57
2023/10/14 08:14:18;;;;;;;5.93;2.17;;;9.30;99.90;;;;;;5020502;28;20087;-59
2023/10/14 08:16:46;;;;;;;8.43;2.00;;;9.40;99.90;;;;;;5024118;28;20053;-59
2023/10/14 08:19:14;;;;;;;11.15;1.67;;;9.50;99.90;;;;;;5009679;28;20509;-59
2023/10/14 08:21:41;;;;;;;9.20;1.65;;;9.50;99.90;;;;;;5016151;28;20049;-59
2023/10/14 08:24:08;;;;;;;9.40;2.35;;;9.50;99.90;;;;;;5009799;28;20508;-60
2023/10/14 08:26:35;;;;;;;10.63;2.03;;;9.50;99.90;;;;;;5018166;28;20045;-59
2023/10/14 08:29:02;;;;;;;16.40;2.83;;;9.40;99.90;;;;;;5017297;28;20089;-59
2023/10/14 08:31:32;;;;;;;13.60;1.92;;;9.60;99.90;;;;;;5009860;28;20498;-59
2023/10/14 08:34:01;;;;;;;14.00;2.28;;;9.70;99.90;;;;;;5012590;28;20128;-59
2023/10/14 08:36:28;;;;;;;9.73;1.92;;;9.70;99.90;;;;;;5015235;28;20104;-60
2023/10/14 08:38:58;;;;;;;8.15;2.00;;;9.80;99.90;;;;;;5011005;28;20052;-61
2023/10/14 08:41:26;;;;;;;9.82;1.85;;;9.70;99.90;;;;;;5017088;28;20140;-60
2023/10/14 08:43:56;;;;;;;14.73;2.58;;;9.70;99.90;;;;;;5004410;28;20485;-60
2023/10/14 08:46:34;;;;;;;14.23;2.42;;;9.90;99.90;;;;;;4999223;28;20046;-59
2023/10/14 08:49:03;;;;;;;9.98;1.60;;;9.90;99.90;;;;;;5021825;28;20041;-60
2023/10/14 08:51:30;;;;;;;11.40;1.48;;;10.10;99.90;;;;;;5008808;28;20104;-60
2023/10/14 08:54:19;;;;;;;8.10;1.98;;;10.50;99.90;;;;;;5021256;28;20568;-60
2023/10/14 08:56:45;;;;;;;13.10;2.05;;;10.80;99.90;;;;;;5016780;28;20050;-59
2023/10/14 08:59:12;;;;;;;8.98;2.08;;;11.00;99.90;;;;;;4668653;28;9999865;-58
2023/10/14 09:01:40;;;;;;;5.70;1.63;;;11.10;99.90;;;;;;5016858;28;20050;-59
2023/10/14 09:04:09;;;;;;;9.38;2.13;;;11.20;99.90;;;;;;5019776;28;20053;-58
2023/10/14 09:06:36;;;;;;;12.30;2.00;;;11.20;99.90;;;;;;4994212;28;20067;-58
2023/10/14 09:09:12;;;;;;;13.18;2.05;;;11.30;99.90;;;;;;5020843;28;20187;-59
2023/10/14 09:11:39;;;;;;;6.45;2.00;;;11.10;99.90;;;;;;5008660;28;20049;-59
2023/10/14 09:14:09;;;;;;;11.40;2.10;;;11.00;99.90;;;;;;5013846;28;20111;-59
2023/10/14 09:16:36;;;;;;;10.93;1.90;;;10.90;99.90;;;;;;5016468;28;20119;-59
2023/10/14 09:19:05;;;;;;;15.35;2.30;;;10.80;99.90;;;;;;5020202;28;20046;-59
2023/10/14 09:21:42;;;;;;;18.80;2.47;;;10.90;99.90;;;;;;5006466;28;20092;-58
2023/10/14 09:24:09;;;;;;;11.30;2.15;;;11.00;99.90;;;;;;5010702;28;20042;-58
2023/10/14 09:26:38;;;;;;;14.18;2.13;;;11.00;99.90;;;;;;5010257;28;20460;-58
2023/10/14 09:29:06;;;;;;;17.30;3.28;;;11.00;99.90;;;;;;4995960;28;20053;-59
2023/10/14 09:31:37;;;;;;;9.63;1.63;;;11.00;99.90;;;;;;5014509;28;20057;-58
2023/10/14 09:34:04;;;;;;;8.65;1.80;;;11.00;99.90;;;;;;5008881;28;20077;-59
2023/10/14 09:36:33;;;;;;;12.18;2.05;;;11.00;99.90;;;;;;5007237;28;20065;-59
2023/10/14 09:39:06;;;;;;;9.52;1.60;;;11.10;99.90;;;;;;5019978;28;20104;-59
2023/10/14 09:41:35;;;;;;;18.65;2.67;;;11.10;99.90;;;;;;5007014;28;20108;-59
2023/10/14 09:44:03;;;;;;;13.50;2.35;;;11.20;99.90;;;;;;5010123;28;20049;-58
2023/10/14 09:46:29;;;;;;;10.52;1.77;;;11.30;99.90;;;;;;5007993;28;20101;-58
2023/10/14 09:48:56;;;;;;;14.20;2.30;;;11.30;99.90;;;;;;5016767;28;20042;-57
2023/10/14 09:51:23;;;;;;;10.40;2.20;;;11.40;99.90;;;;;;5012172;28;20054;-59
2023/10/14 09:53:50;;;;;;;9.30;2.28;;;11.40;99.90;;;;;;5018513;28;20081;-58
2023/10/14 09:56:17;;;;;;;13.98;2.58;;;11.50;99.90;;;;;;5003591;28;20053;-59
2023/10/14 09:59:02;;;;;;;9.07;2.58;;;11.60;99.90;;;;;;5010666;28;20064;-59
2023/10/14 10:01:30;;;;;;;11.05;2.80;;;11.60;99.90;;;;;;5004721;28;20116;-58
2023/10/14 10:04:11;;;;;;;10.63;2.13;;;11.60;99.90;;;;;;5005281;28;20140;-58
2023/10/14 10:07:15;;;;;;;7.65;1.60;;;11.70;99.90;;;;;;5003439;28;20053;-58
2023/10/14 10:10:11;;;;;;;5.47;1.45;;;11.70;99.90;;;;;;5004087;28;20064;-62
2023/10/14 10:12:41;;;;;;;8.90;1.55;;;11.70;99.90;;;;;;4983793;28;20095;-58
2023/10/14 10:15:08;;;;;;;8.93;2.20;;;11.80;99.90;;;;;;5003738;28;20054;-58
2023/10/14 10:17:39;;;;;;;8.63;2.22;;;11.90;99.90;;;;;;5018107;28;20550;-58
2023/10/14 10:20:13;;;;;;;8.93;1.55;;;11.90;99.90;;;;;;4990655;28;20034;-58
2023/10/14 10:22:50;;;;;;;14.45;4.40;;;12.00;99.90;;;;;;5008127;28;20073;-57
2023/10/14 10:25:19;;;;;;;6.03;1.95;;;12.10;99.90;;;;;;5005093;28;20053;-59
2023/10/14 10:27:55;;;;;;;10.20;2.08;;;12.20;99.90;;;;;;5006228;28;20049;-58
2023/10/14 10:30:24;;;;;;;10.95;2.20;;;12.20;99.90;;;;;;5013204;28;20117;-58
2023/10/14 10:32:51;;;;;;;9.95;1.75;;;12.30;99.90;;;;;;5004520;28;20116;-56
2023/10/14 10:35:19;;;;;;;13.68;2.20;;;12.40;99.90;;;;;;5004342;28;20053;-59
2023/10/14 10:37:56;;;;;;;7.80;2.17;;;12.30;99.90;;;;;;5001104;28;20525;-59
2023/10/14 10:40:27;;;;;;;14.50;3.47;;;12.30;99.90;;;;;;4995878;28;20050;-58
2023/10/14 10:42:58;;;;;;;13.32;2.20;;;12.40;99.90;;;;;;5002720;28;20046;-58
2023/10/14 10:45:32;;;;;;;11.60;1.52;;;12.40;99.90;;;;;;5007300;28;20060;-59
2023/10/14 10:48:00;;;;;;;11.18;2.67;;;12.40;99.90;;;;;;5007716;28;20042;-58
2023/10/14 10:50:34;;;;;;;6.13;1.45;;;12.40;99.90;;;;;;5018290;28;20551;-59
2023/10/14 10:53:08;;;;;;;5.82;1.88;;;12.60;99.90;;;;;;5008006;28;20096;-59
2023/10/14 10:55:38;;;;;;;7.40;1.30;;;12.60;99.90;;;;;;5019148;28;20049;-57
2023/10/14 10:58:07;;;;;;;8.07;1.45;;;12.70;99.90;;;;;;5009305;28;20061;-58
2023/10/14 11:00:34;;;;;;;6.05;1.73;;;12.70;99.90;;;;;;5006736;28;20045;-59
2023/10/14 11:03:02;;;;;;;9.13;2.33;;;12.80;99.90;;;;;;5010920;28;20053;-57
2023/10/14 11:05:33;;;;;;;8.85;1.52;;;12.80;99.90;;;;;;5022597;28;20107;-58
2023/10/14 11:08:03;;;;;;;10.40;2.25;;;12.90;99.90;;;;;;5013755;28;20077;-59
2023/10/14 11:10:33;;;;;;;6.63;1.70;;;13.00;99.90;;;;;;5000472;28;20053;-57
2023/10/14 11:13:00;;;;;;;4.50;1.55;;;12.90;99.90;;;;;;5012346;28;20041;-58
2023/10/14 11:15:31;;;;;;;9.52;2.08;;;12.80;99.90;;;;;;5014643;28;20276;-58
2023/10/14 11:17:59;;;;;;;6.90;1.35;;;12.90;99.90;;;;;;5008058;28;20052;-58
2023/10/14 11:20:31;;;;;;;7.20;2.17;;;13.00;99.90;;;;;;5029820;28;20135;-58
2023/10/14 11:22:59;;;;;;;6.90;1.55;;;12.80;99.90;;;;;;5002112;28;20050;-57
2023/10/14 11:25:30;;;;;;;13.60;2.25;;;12.80;99.90;;;;;;5021949;28;20045;-59
2023/10/14 11:27:57;;;;;;;5.78;1.42;;;12.70;99.90;;;;;;5018398;28;20045;-58
2023/10/14 11:30:27;;;;;;;7.38;2.47;;;12.60;99.90;;;;;;5008905;28;20045;-58
2023/10/14 11:33:01;;;;;;;7.38;1.52;;;12.50;99.90;;;;;;5015263;28;20123;-58
2023/10/14 11:35:28;;;;;;;9.93;1.80;;;12.60;99.90;;;;;;5019357;28;20049;-60
2023/10/14 11:38:00;;;;;;;4.80;1.30;;;12.80;99.90;;;;;;5010196;28;20042;-58
2023/10/14 11:40:34;;;;;;;11.77;1.73;;;12.80;99.90;;;;;;5008426;28;20081;-58
2023/10/14 11:43:01;;;;;;;6.38;1.73;;;12.90;99.90;;;;;;5018036;28;20576;-59
2023/10/14 11:45:28;;;;;;;5.72;1.25;;;12.80;99.90;;;;;;5006526;28;20042;-58
2023/10/14 11:47:54;;;;;;;16.92;3.42;;;12.80;99.90;;;;;;5008062;28;20050;-58
2023/10/14 11:50:21;;;;;;;5.80;1.08;;;12.80;99.90;;;;;;5009869;28;20038;-57
2023/10/14 11:52:49;;;;;;;7.35;1.50;;;12.80;99.90;;;;;;5013901;28;20460;-58
2023/10/14 11:55:16;;;;;;;11.15;1.60;;;13.00;99.90;;;;;;5009251;28;20050;-58
2023/10/14 11:57:47;;;;;;;6.22;1.95;;;13.10;99.90;;;;;;5023253;28;20129;-59
2023/10/14 12:00:17;;;;;;;7.53;1.50;;;13.20;99.90;;;;;;5009547;28;20046;-58
2023/10/14 12:02:45;;;;;;;7.82;2.08;;;13.30;99.90;;;;;;5014318;28;20042;-58
2023/10/14 12:05:13;;;;;;;7.57;1.50;;;13.40;99.90;;;;;;5015297;28;20053;-58
2023/10/14 12:07:40;;;;;;;6.68;1.63;;;13.50;99.90;;;;;;5015142;28;20049;-56
2023/10/14 12:10:08;;;;;;;7.75;1.73;;;13.40;99.90;;;;;;5013347;28;20129;-58
2023/10/14 12:12:37;;;;;;;9.20;1.27;;;13.40;99.90;;;;;;5002896;28;20547;-58
2023/10/14 12:15:06;;;;;;;5.43;1.35;;;13.40;99.90;;;;;;5015559;28;20050;-58
2023/10/14 12:17:34;;;;;;;6.05;1.38;;;13.20;99.90;;;;;;5007253;28;20049;-58
2023/10/14 12:20:06;;;;;;;6.35;1.20;;;13.10;99.90;;;;;;5007930;28;20046;-57
2023/10/14 12:22:32;;;;;;;4.57;1.05;;;13.00;99.90;;;;;;5008107;28;20108;-59
2023/10/14 12:24:59;;;;;;;5.30;1.00;;;13.00;99.90;;;;;;5014780;28;20049;-57
2023/10/14 12:27:27;;;;;;;6.78;1.67;;;13.10;99.90;;;;;;5010971;28;20046;-60
2023/10/14 12:29:54;;;;;;;3.47;1.30;;;13.10;99.90;;;;;;5005924;28;20481;-58
2023/10/14 12:32:21;;;;;;;5.70;1.33;;;13.20;99.90;;;;;;5024577;28;20049;-58
2023/10/14 12:34:49;;;;;;;5.45;2.15;;;13.40;99.90;;;;;;5015551;28;20057;-58
2023/10/14 12:37:19;;;;;;;5.47;0.95;;;13.70;99.90;;;;;;5009687;28;20054;-58
2023/10/14 12:39:49;;;;;;;6.85;1.65;;;13.90;99.90;;;;;;5003210;28;20616;-59
2023/10/14 12:42:16;;;;;;;4.15;0.90;;;14.10;99.90;;;;;;5014524;28;20141;-59
2023/10/14 12:44:49;;;;;;;6.15;1.45;;;14.10;99.90;;;;;;5012847;28;20048;-59
2023/10/14 12:47:20;;;;;;;3.53;0.93;;;14.00;99.90;;;;;;5006230;28;20118;-58
2023/10/14 12:49:47;;;;;;;9.75;1.35;;;13.80;99.90;;;;;;5011281;28;20432;-58
2023/10/14 12:52:15;;;;;;;5.40;1.20;;;13.30;99.90;;;;;;5002394;28;20261;-58
2023/10/14 12:54:42;;;;;;;5.55;1.23;;;12.50;99.90;;;;;;5011929;28;20049;-58
2023/10/14 12:57:09;;;;;;;7.10;1.85;;;12.00;99.90;;;;;;5007021;28;20056;-59
2023/10/14 12:59:41;;;;;;;8.75;1.75;;;11.70;99.90;;;;;;5011367;28;20100;-61
2023/10/14 13:02:11;;;;;;;6.75;1.70;;;11.50;99.90;;;;;;5009322;28;20125;-59
2023/10/14 13:04:41;;;;;;;4.30;1.20;;;11.40;99.90;;;;;;5007192;28;20049;-59
2023/10/14 13:07:08;;;;;;;3.72;1.10;;;11.40;99.90;;;;;;5015636;28;20564;-58
2023/10/14 13:09:36;;;;;;;4.70;1.20;;;11.30;99.90;;;;;;5010357;28;20474;-58
2023/10/14 13:12:15;;;;;;;6.97;1.33;;;11.20;99.90;;;;;;5015863;28;20124;-58
2023/10/14 13:14:43;;;;;;;6.97;1.63;;;11.30;99.90;;;;;;5009226;28;20100;-60
2023/10/14 13:17:10;;;;;;;3.70;1.40;;;11.30;99.90;;;;;;5014156;28;20477;-57
2023/10/14 13:19:37;;;;;;;6.38;1.10;;;11.30;99.90;;;;;;5011076;28;20617;-58
2023/10/14 13:22:09;;;;;;;2.80;0.95;;;11.40;99.90;;;;;;5004942;28;20057;-58
2023/10/14 13:24:37;;;;;;;7.50;1.17;;;11.50;99.90;;;;;;5007014;28;20144;-57
2023/10/14 13:27:04;;;;;;;13.10;1.63;;;11.60;99.90;;;;;;5016838;28;20106;-58
2023/10/14 13:29:32;;;;;;;8.45;1.27;;;11.70;99.90;;;;;;5009618;28;20512;-61
2023/10/14 13:31:59;;;;;;;8.23;1.05;;;11.90;99.90;;;;;;5005336;28;20049;-62
2023/10/14 13:34:26;;;;;;;5.97;1.10;;;12.10;99.90;;;;;;5011853;28;20141;-58
2023/10/14 13:36:53;;;;;;;8.45;1.50;;;12.30;99.90;;;;;;5016527;28;20136;-59
2023/10/14 13:39:25;;;;;;;6.72;1.80;;;12.30;99.90;;;;;;4999412;28;20062;-59
2023/10/14 13:41:53;;;;;;;7.13;1.40;;;12.40;99.90;;;;;;5011095;28;20099;-59
2023/10/14 13:44:21;;;;;;;4.50;1.10;;;12.40;99.90;;;;;;5021107;28;20061;-59
2023/10/14 13:46:47;;;;;;;5.32;1.10;;;12.40;99.90;;;;;;5015686;28;20053;-58
2023/10/14 13:49:23;;;;;;;9.93;1.60;;;12.40;99.90;;;;;;5020187;28;20383;-60
2023/10/14 13:51:54;;;;;;;5.13;1.60;;;12.40;99.90;;;;;;5004908;28;20057;-58